Time;durP1;ratioP1;P1;durP2;ratioP2;P2;SDS_P1;SDS_P2;PMS_P1;PMS_P2;Temp;Humidity;BMP_temperature;BMP_pressure;BME280_temperature;BME280_humidity;BME280_pressure;Samples;Min_cycle;Max_cycle;Signal;HPM_P1;HPM_P2
2022/04/25 00:01:36;;;;;;;2.03;1.92;;;;;;;8.90;100.00;95112.44;5089948;28;20035;-56
2022/04/25 00:04:03;;;;;;;1.90;1.80;;;;;;;8.86;100.00;95111.91;5086239;28;20032;-57
2022/04/25 00:06:28;;;;;;;3.13;1.40;;;;;;;8.84;100.00;95116.47;5091151;28;20456;-57
2022/04/25 00:08:54;;;;;;;1.90;1.50;;;;;;;8.83;100.00;95122.69;5083079;28;20111;-56
2022/04/25 00:11:19;;;;;;;3.30;1.55;;;;;;;8.84;100.00;95113.84;5079733;28;20483;-58
2022/04/25 00:13:45;;;;;;;1.48;1.48;;;;;;;8.84;100.00;95121.72;5084961;28;20024;-58
2022/04/25 00:16:10;;;;;;;1.42;1.42;;;;;;;8.86;100.00;95121.59;5091076;28;20063;-58
2022/04/25 00:18:36;;;;;;;1.50;1.50;;;;;;;8.89;100.00;95116.84;5085221;28;20423;-57
2022/04/25 00:21:01;;;;;;;1.60;1.50;;;;;;;8.92;100.00;95126.25;5077370;28;20115;-57
2022/04/25 00:23:26;;;;;;;1.42;1.30;;;;;;;8.86;100.00;95122.38;5085242;28;20306;-57
2022/04/25 00:25:52;;;;;;;1.30;1.30;;;;;;;8.84;100.00;95123.50;5088340;28;20102;-56
2022/04/25 00:28:19;;;;;;;1.60;1.50;;;;;;;8.77;100.00;95117.19;5089961;28;20493;-57
2022/04/25 00:30:45;;;;;;;1.20;1.20;;;;;;;8.72;100.00;95120.22;5086012;28;20115;-57
2022/04/25 00:33:10;;;;;;;1.15;1.15;;;;;;;8.66;100.00;95120.81;5091993;28;20047;-56
2022/04/25 00:35:36;;;;;;;1.20;1.20;;;;;;;8.67;100.00;95117.22;5079500;28;20056;-56
2022/04/25 00:38:01;;;;;;;3.47;1.40;;;;;;;8.65;100.00;95122.63;5084632;28;20028;-58
2022/04/25 00:40:27;;;;;;;1.40;1.40;;;;;;;8.67;100.00;95127.72;5084891;28;20044;-57
2022/04/25 00:42:52;;;;;;;1.48;1.38;;;;;;;8.66;100.00;95121.66;5085606;28;20463;-58
2022/04/25 00:45:18;;;;;;;1.35;1.35;;;;;;;8.64;100.00;95118.34;5085239;28;20037;-57
2022/04/25 00:47:45;;;;;;;1.15;1.15;;;;;;;8.63;100.00;95118.47;5085466;28;20071;-58
2022/04/25 00:50:11;;;;;;;1.10;1.10;;;;;;;8.64;100.00;95120.97;5082168;28;20016;-57
2022/04/25 00:52:37;;;;;;;3.13;1.30;;;;;;;8.65;100.00;95120.00;5085317;28;20036;-58
2022/04/25 00:55:07;;;;;;;1.45;1.45;;;;;;;8.65;100.00;95116.53;5088125;28;20032;-57
2022/04/25 00:57:33;;;;;;;1.80;1.38;;;;;;;8.62;100.00;95119.47;5085420;28;20028;-57
2022/04/25 00:59:59;;;;;;;1.27;1.27;;;;;;;8.63;100.00;95118.47;5075102;28;20031;-57
2022/04/25 01:02:26;;;;;;;1.42;1.42;;;;;;;8.60;100.00;95120.44;5085039;28;20040;-56
2022/04/25 01:04:53;;;;;;;1.50;1.40;;;;;;;8.57;100.00;95122.50;5090998;28;20525;-55
2022/04/25 01:07:19;;;;;;;1.55;1.45;;;;;;;8.55;100.00;95116.56;5089700;28;20678;-57
2022/04/25 01:09:44;;;;;;;1.50;1.50;;;;;;;8.57;100.00;95123.34;5083995;28;20025;-58
2022/04/25 01:12:10;;;;;;;1.63;1.52;;;;;;;8.59;100.00;95116.16;5083461;28;20100;-56
2022/04/25 01:14:35;;;;;;;1.63;1.52;;;;;;;8.62;100.00;95112.44;5086673;28;20671;-57
2022/04/25 01:17:01;;;;;;;1.60;1.50;;;;;;;8.60;100.00;95109.94;5088693;28;20549;-56
2022/04/25 01:19:26;;;;;;;1.77;1.67;;;;;;;8.58;100.00;95111.88;5082518;28;20036;-57
2022/04/25 01:22:01;;;;;;;1.67;1.55;;;;;;;8.56;100.00;95105.09;5081982;28;20099;-56
2022/04/25 01:27:18;;;;;;;1.90;1.80;;;;;;;8.54;100.00;95110.53;5087916;28;20038;-57
2022/04/25 01:29:48;;;;;;;1.75;1.60;;;;;;;8.54;100.00;95102.66;5086588;28;20032;-57
2022/04/25 01:32:14;;;;;;;1.58;1.48;;;;;;;8.56;100.00;95116.44;5088317;28;20031;-54
2022/04/25 01:34:40;;;;;;;1.63;1.60;;;;;;;8.54;100.00;95105.28;5085443;28;20521;-56
2022/04/25 01:37:07;;;;;;;3.25;1.70;;;;;;;8.57;100.00;95109.38;5089512;28;20085;-56
2022/04/25 01:39:37;;;;;;;1.55;1.48;;;;;;;8.57;100.00;95101.50;5086634;28;20492;-56
2022/04/25 01:42:04;;;;;;;1.67;1.50;;;;;;;8.58;100.00;95104.00;5086024;28;20038;-57
2022/04/25 01:44:30;;;;;;;2.67;1.70;;;;;;;8.51;100.00;95097.69;5089620;28;20081;-56
2022/04/25 01:46:56;;;;;;;1.90;1.30;;;;;;;8.53;100.00;95095.75;5084227;28;20111;-56
2022/04/25 01:49:21;;;;;;;1.58;1.48;;;;;;;8.49;100.00;95091.69;5081947;28;20043;-57
2022/04/25 01:51:47;;;;;;;1.80;1.70;;;;;;;8.46;100.00;95095.47;5084308;28;20029;-56
2022/04/25 01:54:13;;;;;;;2.97;2.00;;;;;;;8.51;100.00;95094.22;5089907;28;20035;-56
2022/04/25 01:56:38;;;;;;;1.80;1.70;;;;;;;8.49;100.00;95096.94;5083347;28;20068;-55
2022/04/25 01:59:04;;;;;;;3.60;1.73;;;;;;;8.51;100.00;95081.94;5082032;28;20077;-56
2022/04/25 02:01:29;;;;;;;1.65;1.55;;;;;;;8.50;100.00;95101.25;5081976;28;20047;-56
2022/04/25 02:03:54;;;;;;;1.60;1.50;;;;;;;8.53;100.00;95095.75;5085651;28;20044;-57
2022/04/25 02:06:20;;;;;;;3.38;3.15;;;;;;;8.48;100.00;95094.50;5087038;28;20395;-56
2022/04/25 02:08:46;;;;;;;1.55;1.55;;;;;;;8.44;100.00;95086.06;5081440;28;20048;-55
2022/04/25 02:11:21;;;;;;;1.52;1.48;;;;;;;8.43;100.00;95095.75;5081881;28;20042;-56
2022/04/25 02:13:50;;;;;;;1.65;1.55;;;;;;;8.42;100.00;95093.25;5083191;28;20019;-57
2022/04/25 02:16:16;;;;;;;1.40;1.30;;;;;;;8.39;100.00;95094.34;5086581;28;20040;-55
2022/04/25 02:18:41;;;;;;;1.50;1.42;;;;;;;8.37;100.00;95093.69;5080528;28;20035;-56
2022/04/25 02:21:07;;;;;;;1.10;1.10;;;;;;;8.36;100.00;95094.66;5074892;28;20183;-57
2022/04/25 02:23:34;;;;;;;1.70;1.52;;;;;;;8.38;100.00;95097.13;5083660;28;20472;-56
2022/04/25 02:25:59;;;;;;;3.15;1.30;;;;;;;8.39;100.00;95094.34;5087033;28;20032;-55
2022/04/25 02:28:25;;;;;;;1.50;1.40;;;;;;;8.40;100.00;95096.03;5090355;28;20031;-56
2022/04/25 02:30:51;;;;;;;1.17;1.17;;;;;;;8.42;100.00;95098.50;5085741;28;20042;-56
2022/04/25 02:33:18;;;;;;;1.48;1.38;;;;;;;8.55;100.00;95098.22;5091254;28;20036;-54
2022/04/25 02:35:43;;;;;;;1.58;1.38;;;;;;;8.49;100.00;95098.75;5081635;28;20404;-55
2022/04/25 02:38:09;;;;;;;1.50;1.50;;;;;;;8.41;100.00;95102.09;5085378;28;20089;-55
2022/04/25 02:40:34;;;;;;;1.30;1.30;;;;;;;8.43;100.00;95100.16;5084809;28;20403;-56
2022/04/25 02:42:59;;;;;;;1.40;1.30;;;;;;;8.37;100.00;95098.13;5083292;28;20081;-54
2022/04/25 02:45:25;;;;;;;3.95;1.52;;;;;;;8.40;100.00;95103.06;5081466;28;20522;-55
2022/04/25 02:47:51;;;;;;;2.55;1.50;;;;;;;8.31;100.00;95104.75;5084016;28;20499;-55
2022/04/25 02:50:17;;;;;;;2.00;1.63;;;;;;;8.27;100.00;95100.75;5083571;28;20027;-55
2022/04/25 02:52:42;;;;;;;4.10;1.60;;;;;;;8.25;100.00;95102.69;5085610;28;20032;-56
2022/04/25 02:55:09;;;;;;;1.50;1.40;;;;;;;8.29;100.00;95107.53;5083929;28;20035;-55
2022/04/25 02:57:34;;;;;;;1.50;1.40;;;;;;;8.26;100.00;95099.91;5083990;28;20030;-55
2022/04/25 03:00:00;;;;;;;2.35;1.70;;;;;;;8.27;100.00;95100.75;5081087;28;20107;-56
2022/04/25 03:02:25;;;;;;;1.80;1.70;;;;;;;8.26;100.00;95099.09;5080414;28;20067;-56
2022/04/25 03:04:50;;;;;;;1.88;1.67;;;;;;;8.30;100.00;95098.69;5083000;28;20467;-53
2022/04/25 03:07:16;;;;;;;1.50;1.50;;;;;;;8.30;100.00;95098.69;5083942;28;20021;-55
2022/04/25 03:09:41;;;;;;;2.10;1.90;;;;;;;8.29;100.00;95099.66;5081881;28;20035;-56
2022/04/25 03:12:07;;;;;;;3.15;1.80;;;;;;;8.26;100.00;95099.09;5081947;28;20437;-55
2022/04/25 03:14:34;;;;;;;2.80;1.80;;;;;;;8.26;100.00;95099.09;5084166;28;20028;-56
2022/04/25 03:17:00;;;;;;;1.48;1.45;;;;;;;8.30;100.00;95103.94;5082280;28;20024;-57
2022/04/25 03:19:25;;;;;;;1.75;1.50;;;;;;;8.27;100.00;95098.13;5080632;28;20029;-55
2022/04/25 03:21:50;;;;;;;2.25;1.50;;;;;;;8.23;100.00;95099.41;5081209;28;20407;-57
2022/04/25 03:24:16;;;;;;;1.67;1.63;;;;;;;8.25;100.00;95102.69;5082128;28;20032;-56
2022/04/25 03:26:41;;;;;;;1.60;1.50;;;;;;;8.21;100.00;95101.34;5081974;28;20025;-55
2022/04/25 03:29:06;;;;;;;2.30;2.20;;;;;;;8.15;100.00;95105.34;5083815;28;20028;-54
2022/04/25 03:31:32;;;;;;;2.28;2.17;;;;;;;8.18;100.00;95102.44;5080943;28;20032;-56
2022/04/25 03:33:57;;;;;;;1.92;1.83;;;;;;;8.14;100.00;95101.88;5079817;28;20539;-55
2022/04/25 03:36:23;;;;;;;1.90;1.80;;;;;;;8.14;100.00;95090.59;5083256;28;20054;-55
2022/04/25 03:38:48;;;;;;;2.30;1.77;;;;;;;8.09;100.00;95093.63;5081240;28;20020;-53
2022/04/25 03:41:14;;;;;;;1.60;1.50;;;;;;;8.13;100.00;95089.75;5084575;28;20078;-56
2022/04/25 03:43:39;;;;;;;1.80;1.70;;;;;;;8.13;100.00;95086.31;5082348;28;20644;-56
2022/04/25 03:46:05;;;;;;;1.45;1.45;;;;;;;8.12;100.00;95095.13;5075464;28;20033;-56
2022/04/25 03:48:30;;;;;;;1.55;1.45;;;;;;;8.14;100.00;95098.44;5082568;28;20044;-55
2022/04/25 03:50:56;;;;;;;1.77;1.67;;;;;;;8.37;100.00;95093.69;5083023;28;20393;-55
2022/04/25 03:53:22;;;;;;;1.70;1.60;;;;;;;8.26;100.00;95094.66;5084284;28;20051;-55
2022/04/25 03:58:32;;;;;;;2.08;1.98;;;;;;;8.24;100.00;95096.63;5077693;28;20093;-52
2022/04/25 04:00:57;;;;;;;1.77;1.67;;;;;;;8.17;100.00;95101.59;5083138;28;20476;-55
2022/04/25 04:03:23;;;;;;;2.08;1.90;;;;;;;8.14;100.00;95096.63;5085542;28;20433;-54
2022/04/25 04:05:50;;;;;;;2.17;1.80;;;;;;;8.13;100.00;95105.47;5081012;28;20039;-55
2022/04/25 04:08:15;;;;;;;1.75;1.65;;;;;;;8.10;100.00;95099.69;5077907;28;20059;-57
2022/04/25 04:10:41;;;;;;;1.85;1.75;;;;;;;8.07;100.00;95107.81;5085456;28;20100;-56
2022/04/25 04:13:07;;;;;;;1.90;1.80;;;;;;;8.08;100.00;95110.31;5088701;28;20112;-58
2022/04/25 04:15:32;;;;;;;3.28;3.08;;;;;;;8.10;100.00;95108.38;5093553;28;20028;-56
2022/04/25 04:17:58;;;;;;;6.50;5.22;;;;;;;8.08;100.00;95112.94;5088466;28;20071;-55
2022/04/25 04:20:23;;;;;;;2.97;2.78;;;;;;;8.09;100.00;95113.78;5085288;28;20608;-54
2022/04/25 04:22:49;;;;;;;1.85;1.75;;;;;;;8.11;100.00;95115.28;5075100;28;20040;-55
2022/04/25 04:25:14;;;;;;;1.98;1.85;;;;;;;8.14;100.00;95107.13;5093312;28;20016;-56
2022/04/25 04:27:41;;;;;;;3.22;1.38;;;;;;;8.23;100.00;95118.56;5085334;28;20039;-56
2022/04/25 04:30:12;;;;;;;1.50;1.50;;;;;;;8.21;100.00;95112.63;5079135;28;20027;-57
2022/04/25 04:32:40;;;;;;;4.97;2.80;;;;;;;8.21;100.00;95115.25;5085414;28;20031;-55
2022/04/25 04:35:08;;;;;;;6.60;5.05;;;;;;;8.22;100.00;95114.28;5088466;28;20020;-54
2022/04/25 04:37:34;;;;;;;5.63;4.72;;;;;;;8.25;100.00;95131.53;5088258;28;20025;-54
2022/04/25 04:43:04;;;;;;;4.63;2.90;;;;;;;8.22;100.00;95130.03;5001814;28;20034;-56
2022/04/25 04:45:29;;;;;;;2.75;2.55;;;;;;;8.29;100.00;95128.50;5009841;28;20086;-54
2022/04/25 04:47:55;;;;;;;2.13;1.98;;;;;;;8.27;100.00;95125.16;5030217;28;20097;-57
2022/04/25 04:50:21;;;;;;;2.20;2.10;;;;;;;8.22;100.00;95140.50;5062173;28;20381;-58
2022/04/25 04:52:58;;;;;;;1.50;1.50;;;;;;;8.17;100.00;95137.50;5065616;28;20041;-56
2022/04/25 04:55:23;;;;;;;1.73;1.60;;;;;;;8.19;100.00;95135.56;5065856;28;20032;-54
2022/04/25 04:57:49;;;;;;;1.83;1.73;;;;;;;8.20;100.00;95141.63;5065504;28;20081;-57
2022/04/25 05:00:15;;;;;;;3.58;1.63;;;;;;;8.19;100.00;95145.22;5063736;28;20025;-55
2022/04/25 05:02:42;;;;;;;3.53;1.60;;;;;;;8.21;100.00;95148.53;5061845;28;20028;-55
2022/04/25 05:05:08;;;;;;;1.42;1.42;;;;;;;8.19;100.00;95146.03;5065372;28;20039;-55
2022/04/25 05:07:35;;;;;;;1.55;1.45;;;;;;;8.22;100.00;95144.94;5064101;28;20029;-54
2022/04/25 05:10:03;;;;;;;2.08;1.80;;;;;;;8.21;100.00;95151.97;5064935;28;20513;-55
2022/04/25 05:12:29;;;;;;;1.80;1.70;;;;;;;8.24;100.00;95149.06;5060781;28;21053;-56
2022/04/25 05:14:54;;;;;;;1.70;1.70;;;;;;;8.23;100.00;95147.41;5065580;28;20036;-57
2022/04/25 05:17:20;;;;;;;1.80;1.70;;;;;;;8.25;100.00;95153.34;5064288;28;20029;-56
2022/04/25 05:19:45;;;;;;;2.17;2.08;;;;;;;8.26;100.00;95155.00;5064793;28;20026;-57
2022/04/25 05:22:10;;;;;;;4.07;2.33;;;;;;;8.28;100.00;95153.06;5063129;28;20032;-56
2022/04/25 05:24:36;;;;;;;3.10;2.90;;;;;;;8.30;100.00;95163.41;5065801;28;20120;-55
2022/04/25 05:27:02;;;;;;;3.17;2.95;;;;;;;8.33;100.00;95163.13;5064303;28;20083;-55
2022/04/25 05:29:27;;;;;;;2.72;2.63;;;;;;;8.36;100.00;95162.03;5059185;28;20086;-56
2022/04/25 05:31:52;;;;;;;2.03;1.92;;;;;;;8.42;100.00;95166.69;5062773;28;20086;-55
2022/04/25 05:34:18;;;;;;;1.83;1.73;;;;;;;8.41;100.00;95167.69;5065438;28;20507;-57
2022/04/25 05:36:44;;;;;;;1.50;1.50;;;;;;;8.38;100.00;95168.78;5070336;28;20039;-56
2022/04/25 05:39:10;;;;;;;1.85;1.75;;;;;;;8.38;100.00;95178.44;5064744;28;20480;-56
2022/04/25 05:41:36;;;;;;;1.80;1.70;;;;;;;8.38;100.00;95181.06;5064785;28;20112;-56
2022/04/25 05:44:03;;;;;;;2.70;1.85;;;;;;;8.38;100.00;95168.78;5072961;28;20052;-57
2022/04/25 05:46:28;;;;;;;2.30;1.75;;;;;;;8.39;100.00;95172.25;5085471;28;20032;-56
2022/04/25 05:54:22;;;;;;;1.70;1.60;;;;;;;8.57;100.00;95190.72;5085590;28;20061;-57
2022/04/25 05:56:47;;;;;;;1.92;1.83;;;;;;;8.55;100.00;95183.00;5083894;28;20475;-55
2022/04/25 05:59:12;;;;;;;2.00;1.90;;;;;;;8.63;100.00;95176.22;5083693;28;20024;-55
2022/04/25 06:01:38;;;;;;;2.22;2.13;;;;;;;8.68;100.00;95177.44;5085312;28;20032;-56
2022/04/25 06:04:03;;;;;;;2.10;2.00;;;;;;;8.74;100.00;95182.13;5090737;28;20047;-55
2022/04/25 06:06:28;;;;;;;3.20;1.95;;;;;;;8.74;100.00;95182.13;5083018;28;20070;-55
2022/04/25 06:08:54;;;;;;;2.53;1.70;;;;;;;8.87;100.00;95191.47;5085065;28;20380;-56
2022/04/25 06:11:21;;;;;;;2.00;1.90;;;;;;;8.79;100.00;95189.56;5088899;28;20028;-56
2022/04/25 06:13:47;;;;;;;2.08;1.98;;;;;;;8.70;100.00;95191.25;5085914;28;20039;-55
2022/04/25 06:16:12;;;;;;;1.70;1.70;;;;;;;8.64;100.00;95177.88;5088586;28;20032;-56
2022/04/25 06:18:38;;;;;;;1.70;1.70;;;;;;;8.64;100.00;95185.75;5081265;28;20138;-57
2022/04/25 06:21:03;;;;;;;3.80;2.15;;;;;;;8.65;100.00;95182.16;5086414;28;20033;-57
2022/04/25 06:23:30;;;;;;;3.00;2.70;;;;;;;8.76;100.00;95192.50;5084121;28;20032;-55
2022/04/25 06:25:56;;;;;;;2.00;1.90;;;;;;;8.80;100.00;95191.22;5081266;28;20397;-56
2022/04/25 06:28:21;;;;;;;3.38;2.88;;;;;;;8.67;100.00;95195.94;5086974;28;20126;-55
2022/04/25 06:30:47;;;;;;;2.65;2.45;;;;;;;8.63;100.00;95184.09;5085942;28;20028;-57
2022/04/25 06:33:12;;;;;;;2.67;1.70;;;;;;;8.68;100.00;95198.44;5084931;28;20476;-57
2022/04/25 06:35:38;;;;;;;3.47;2.20;;;;;;;8.72;100.00;95193.72;5088046;28;20028;-58
2022/04/25 06:38:03;;;;;;;2.95;2.67;;;;;;;8.73;100.00;95195.38;5084029;28;20503;-55
2022/04/25 06:40:28;;;;;;;3.00;2.80;;;;;;;8.66;100.00;95196.91;5086561;28;20051;-58
2022/04/25 06:42:55;;;;;;;1.63;1.60;;;;;;;8.67;100.00;95204.66;5080267;28;20039;-58
2022/04/25 06:45:21;;;;;;;2.90;1.80;;;;;;;8.63;100.00;95200.69;5076578;28;20054;-55
2022/04/25 06:47:46;;;;;;;1.70;1.65;;;;;;;8.62;100.00;95199.03;5082082;28;20036;-57
2022/04/25 06:50:12;;;;;;;1.80;1.70;;;;;;;8.60;100.00;95200.94;5085366;28;20078;-56
2022/04/25 06:52:37;;;;;;;1.70;1.60;;;;;;;8.67;100.00;95202.03;5083221;28;20032;-56
2022/04/25 06:55:07;;;;;;;1.60;1.60;;;;;;;8.74;100.00;95203.13;5083076;28;20040;-56
2022/04/25 06:57:33;;;;;;;1.88;1.77;;;;;;;8.78;100.00;95203.66;5082439;28;20103;-58
2022/04/25 07:00:00;;;;;;;1.80;1.70;;;;;;;8.73;100.00;95211.13;5075984;28;20529;-57
2022/04/25 07:02:25;;;;;;;1.90;1.80;;;;;;;8.72;100.00;95205.06;5082138;28;20028;-57
2022/04/25 07:04:51;;;;;;;2.05;1.60;;;;;;;8.67;100.00;95217.78;5085844;28;20050;-57
2022/04/25 07:07:17;;;;;;;1.88;1.77;;;;;;;8.59;100.00;95215.88;5082013;28;20109;-55
2022/04/25 07:09:43;;;;;;;5.43;4.20;;;;;;;8.66;100.00;95210.03;5074963;28;20021;-56
2022/04/25 07:12:09;;;;;;;7.82;7.10;;;;;;;8.69;100.00;95213.22;5082142;28;20111;-57
2022/04/25 07:14:34;;;;;;;2.75;2.63;;;;;;;8.79;100.00;95209.72;5085879;28;20066;-57
2022/04/25 07:17:02;;;;;;;1.90;1.80;;;;;;;8.75;100.00;95214.47;5084808;28;20098;-54
2022/04/25 07:19:28;;;;;;;1.38;1.38;;;;;;;8.79;100.00;95214.97;5078182;28;20043;-56
2022/04/25 07:30:05;;;;;;;2.40;2.30;;;;;;;8.99;100.00;95210.50;5086147;28;20066;-57
2022/04/25 07:32:32;;;;;;;2.78;2.58;;;;;;;8.98;100.00;95204.41;5083668;28;20035;-54
2022/04/25 07:34:58;;;;;;;2.78;2.58;;;;;;;8.95;100.00;95215.22;5085890;28;20056;-57
2022/04/25 07:37:24;;;;;;;3.40;3.20;;;;;;;8.98;100.00;95207.03;5085301;28;20044;-57
2022/04/25 07:39:50;;;;;;;3.88;3.58;;;;;;;9.09;100.00;95213.91;5084808;28;20020;-57
2022/04/25 07:42:18;;;;;;;2.97;2.85;;;;;;;9.00;100.00;95215.59;5087029;28;20055;-58
2022/04/25 07:44:44;;;;;;;2.40;2.30;;;;;;;8.95;100.00;95212.59;5077133;28;20450;-58
2022/04/25 07:47:10;;;;;;;2.60;2.50;;;;;;;8.95;100.00;95220.47;5087210;28;20059;-58
2022/04/25 07:49:35;;;;;;;3.30;3.10;;;;;;;9.05;100.00;95222.22;5090777;28;20495;-57
2022/04/25 07:52:01;;;;;;;3.33;3.13;;;;;;;9.03;100.00;95223.19;5087356;28;20032;-57
2022/04/25 07:54:26;;;;;;;3.80;3.60;;;;;;;8.92;100.00;95222.53;5091210;28;20028;-58
2022/04/25 07:56:52;;;;;;;3.22;3.08;;;;;;;9.09;100.00;95221.78;5091792;28;20024;-58
2022/04/25 07:59:18;;;;;;;3.15;2.95;;;;;;;9.13;100.00;95222.34;5088221;28;20024;-58
2022/04/25 08:01:44;;;;;;;3.45;3.20;;;;;;;9.14;100.00;95232.69;5091014;28;20032;-55
2022/04/25 08:04:09;;;;;;;3.33;3.10;;;;;;;9.16;100.00;95230.72;5092037;28;20043;-56
2022/04/25 08:06:35;;;;;;;3.75;3.42;;;;;;;9.11;100.00;95234.78;5091512;28;20062;-57
2022/04/25 08:09:03;;;;;;;3.05;2.85;;;;;;;9.08;100.00;95238.50;5082667;28;20027;-57
2022/04/25 08:11:29;;;;;;;3.25;3.05;;;;;;;9.17;100.00;95248.19;5086450;28;20411;-56
2022/04/25 08:19:22;;;;;;;2.63;2.53;;;;;;;9.17;100.00;95248.19;5079667;28;20039;-55
2022/04/25 08:21:48;;;;;;;2.88;2.70;;;;;;;9.21;100.00;95253.13;5084249;28;20539;-55
2022/04/25 08:24:14;;;;;;;2.80;2.70;;;;;;;9.22;100.00;95262.66;5079897;28;20064;-55
2022/04/25 08:26:40;;;;;;;2.75;2.65;;;;;;;9.26;100.00;95258.78;5086983;28;20024;-54
2022/04/25 08:29:06;;;;;;;2.92;2.72;;;;;;;9.29;100.00;95269.00;5084871;28;20058;-54
2022/04/25 08:31:33;;;;;;;2.85;2.75;;;;;;;9.25;100.00;95275.50;5089971;28;20424;-54
2022/04/25 08:33:59;;;;;;;2.17;2.08;;;;;;;9.24;100.00;95274.66;5092814;28;20039;-54
2022/04/25 08:36:24;;;;;;;2.08;1.98;;;;;;;9.29;100.00;95285.59;5088412;28;20036;-54
2022/04/25 08:38:51;;;;;;;2.47;2.30;;;;;;;9.46;100.00;95273.50;5087155;28;20028;-55
2022/04/25 08:41:21;;;;;;;2.13;1.90;;;;;;;9.46;100.00;95280.53;5089781;28;20491;-56
2022/04/25 08:43:51;;;;;;;2.88;2.67;;;;;;;9.61;100.00;95283.50;5090031;28;20040;-54
2022/04/25 08:46:17;;;;;;;2.10;2.00;;;;;;;9.69;100.00;95290.66;5084192;28;20104;-50
2022/04/25 08:48:44;;;;;;;2.50;2.30;;;;;;;9.79;100.00;95290.59;5084700;28;20031;-54
2022/04/25 08:51:11;;;;;;;2.60;2.50;;;;;;;9.86;100.00;95291.69;5087445;28;20038;-53
2022/04/25 08:53:39;;;;;;;2.65;2.50;;;;;;;9.88;100.00;95290.56;5088600;28;20061;-54
2022/04/25 08:56:09;;;;;;;2.33;2.22;;;;;;;10.03;100.00;95290.88;5084310;28;20024;-57
2022/04/25 08:58:39;;;;;;;2.42;2.22;;;;;;;10.01;100.00;95289.38;5087607;28;20031;-54
2022/04/25 09:01:04;;;;;;;2.42;2.33;;;;;;;10.14;100.00;95291.66;5088045;28;20064;-56
2022/04/25 09:03:30;;;;;;;2.63;2.53;;;;;;;10.30;100.00;95299.72;5088206;28;20095;-51
2022/04/25 09:05:55;;;;;;;3.20;3.00;;;;;;;10.56;100.00;95301.63;5085774;28;20035;-55
2022/04/25 09:08:21;;;;;;;2.72;2.53;;;;;;;10.80;100.00;95291.41;5084143;28;20108;-54
2022/04/25 09:10:47;;;;;;;3.20;3.00;;;;;;;11.04;99.66;95299.50;5083946;28;20405;-56
2022/04/25 09:13:14;;;;;;;4.55;4.25;;;;;;;11.12;97.93;95298.72;5085722;28;20028;-52
2022/04/25 09:15:40;;;;;;;4.43;4.10;;;;;;;11.24;96.95;95296.66;5088437;28;20017;-49
2022/04/25 09:18:05;;;;;;;5.35;4.95;;;;;;;11.24;95.53;95295.84;5088224;28;20073;-54
2022/04/25 09:20:30;;;;;;;5.22;4.75;;;;;;;11.39;94.71;95299.56;5084699;28;20407;-54
2022/04/25 09:22:56;;;;;;;5.78;5.28;;;;;;;11.38;94.73;95302.34;5085420;28;20027;-53
2022/04/25 09:25:22;;;;;;;5.47;4.97;;;;;;;11.71;93.18;95298.03;5082040;28;20491;-52
2022/04/25 09:28:11;;;;;;;5.78;5.28;;;;;;;12.11;91.10;95298.38;5091473;28;20035;-56
2022/04/25 09:30:37;;;;;;;5.78;5.28;;;;;;;12.79;88.03;95294.81;5090472;28;20023;-54
2022/04/25 09:33:02;;;;;;;6.53;5.93;;;;;;;13.00;86.89;95286.41;5090003;28;20495;-57
2022/04/25 09:35:36;;;;;;;6.05;5.65;;;;;;;13.18;85.06;95291.47;5091861;28;20040;-50
2022/04/25 09:38:06;;;;;;;5.95;5.43;;;;;;;13.26;83.68;95288.84;5091957;28;20035;-54
2022/04/25 09:40:34;;;;;;;5.50;5.10;;;;;;;13.20;83.90;95291.31;5093103;28;20035;-55
2022/04/25 09:43:14;;;;;;;6.47;5.93;;;;;;;13.16;81.57;95299.59;5094103;28;20498;-54
2022/04/25 09:45:42;;;;;;;5.82;5.35;;;;;;;12.97;79.69;95302.59;5091758;28;20032;-52
2022/04/25 09:48:18;;;;;;;6.05;5.50;;;;;;;12.97;81.49;95299.94;5091899;28;20038;-51
2022/04/25 09:50:58;;;;;;;5.72;5.28;;;;;;;12.89;81.02;95298.94;5087868;28;20036;-52
2022/04/25 09:53:38;;;;;;;6.72;5.75;;;;;;;13.33;82.60;95297.75;5089301;28;20035;-54
2022/04/25 09:56:18;;;;;;;8.05;5.07;;;;;;;13.62;79.84;95295.53;5089610;28;20393;-54
2022/04/25 09:58:56;;;;;;;7.85;4.97;;;;;;;13.78;77.63;95301.75;5092999;28;20099;-53
2022/04/25 10:01:22;;;;;;;6.93;4.50;;;;;;;13.77;74.67;95302.75;5090079;28;20024;-55
2022/04/25 10:03:48;;;;;;;4.75;4.35;;;;;;;13.74;77.25;95302.09;5091968;28;20020;-55
2022/04/25 10:06:14;;;;;;;5.03;4.72;;;;;;;13.72;76.15;95306.75;5093378;28;20031;-54
2022/04/25 10:08:41;;;;;;;4.65;4.25;;;;;;;13.61;77.17;95309.78;5091924;28;20036;-54
2022/04/25 10:11:07;;;;;;;5.78;4.28;;;;;;;13.78;76.85;95299.09;5090677;28;20036;-54
2022/04/25 10:13:34;;;;;;;4.13;3.83;;;;;;;13.67;76.87;95302.94;5089953;28;20029;-54
2022/04/25 10:16:00;;;;;;;4.65;4.25;;;;;;;13.39;78.30;95309.47;5083882;28;21964;-54
2022/04/25 10:18:27;;;;;;;4.38;3.97;;;;;;;13.01;78.01;95312.63;5088600;28;20046;-53
2022/04/25 10:20:52;;;;;;;4.80;4.40;;;;;;;12.71;79.55;95314.13;5086621;28;20555;-55
2022/04/25 10:23:18;;;;;;;4.75;4.32;;;;;;;12.83;79.47;95312.81;5091706;28;20106;-52
2022/04/25 10:25:49;;;;;;;4.97;4.57;;;;;;;12.78;79.74;95322.22;5084957;28;20034;-54
2022/04/25 10:28:25;;;;;;;4.93;4.50;;;;;;;12.58;80.23;95317.25;5089223;28;20089;-54
2022/04/25 10:30:51;;;;;;;4.43;4.10;;;;;;;12.52;80.51;95313.47;5084310;28;20038;-54
2022/04/25 10:33:21;;;;;;;5.10;4.60;;;;;;;12.50;80.70;95318.09;5091155;28;20032;-53
2022/04/25 10:35:51;;;;;;;5.85;4.35;;;;;;;12.78;79.32;95322.22;5088320;28;20051;-55
2022/04/25 10:38:48;;;;;;;5.07;4.60;;;;;;;12.86;79.28;95323.06;5092431;28;20028;-55
2022/04/25 10:44:17;;;;;;;4.78;4.38;;;;;;;13.63;76.28;95326.28;5087669;28;20051;-54
2022/04/25 10:47:19;;;;;;;5.20;4.90;;;;;;;14.14;75.12;95320.59;5093867;28;20447;-56
2022/04/25 10:49:58;;;;;;;4.03;3.72;;;;;;;14.83;72.17;95327.00;5082159;28;20040;-57
2022/04/25 10:55:20;;;;;;;3.85;3.65;;;;;;;16.51;67.92;95317.91;5087155;28;20042;-55
2022/04/25 10:58:03;;;;;;;4.50;4.10;;;;;;;17.15;63.88;95318.13;5088407;28;20499;-55
2022/04/25 11:00:38;;;;;;;3.60;3.40;;;;;;;17.83;61.47;95322.88;5089514;28;20089;-55
2022/04/25 11:03:08;;;;;;;5.32;3.03;;;;;;;18.61;58.81;95327.09;5087372;28;20031;-54
2022/04/25 11:05:35;;;;;;;3.00;2.75;;;;;;;19.11;54.53;95322.50;5087252;28;20039;-56
2022/04/25 11:08:15;;;;;;;2.97;2.78;;;;;;;19.81;53.94;95319.34;5092630;28;20392;-55
2022/04/25 11:10:48;;;;;;;4.07;3.10;;;;;;;20.26;53.05;95318.63;5087645;28;20028;-51
2022/04/25 11:13:18;;;;;;;2.97;2.78;;;;;;;20.16;54.02;95313.72;5089414;28;20031;-52
2022/04/25 11:15:49;;;;;;;4.13;3.00;;;;;;;20.91;51.61;95316.03;5089216;28;20028;-53
2022/04/25 11:18:35;;;;;;;2.92;2.70;;;;;;;21.22;48.99;95309.84;5092508;28;20025;-56
2022/04/25 11:21:04;;;;;;;2.67;2.50;;;;;;;21.41;47.92;95307.19;5088104;28;20039;-57
2022/04/25 11:23:43;;;;;;;2.42;2.33;;;;;;;21.20;47.19;95313.75;5089524;28;20407;-55
2022/04/25 11:26:11;;;;;;;2.40;2.20;;;;;;;20.68;47.72;95309.38;5089402;28;20617;-58
2022/04/25 11:28:58;;;;;;;2.58;2.38;;;;;;;20.24;49.67;95310.00;5088417;28;20020;-55
2022/04/25 11:31:30;;;;;;;1.90;1.73;;;;;;;20.88;47.47;95312.72;5089284;28;20392;-57
2022/04/25 11:34:00;;;;;;;2.63;2.42;;;;;;;19.84;47.15;95310.09;5089443;28;20036;-54
2022/04/25 11:36:25;;;;;;;1.50;1.50;;;;;;;20.56;47.89;95314.56;5088599;28;20032;-56
2022/04/25 11:41:38;;;;;;;1.35;1.35;;;;;;;18.66;50.62;95315.00;5088340;28;20403;-53
2022/04/25 11:44:07;;;;;;;1.60;1.50;;;;;;;17.40;54.37;95313.19;5090274;28;20052;-55
2022/04/25 11:46:35;;;;;;;1.70;1.55;;;;;;;17.09;54.03;95319.69;5089145;28;20079;-53
2022/04/25 11:49:00;;;;;;;1.60;1.50;;;;;;;16.89;55.52;95312.34;5084978;28;20028;-54
2022/04/25 11:51:29;;;;;;;2.60;1.60;;;;;;;16.72;55.73;95316.28;5090380;28;20400;-54
2022/04/25 11:54:01;;;;;;;2.08;1.88;;;;;;;16.61;56.63;95315.75;5086555;28;20028;-55
2022/04/25 11:56:27;;;;;;;1.60;1.60;;;;;;;16.93;56.71;95312.78;5090369;28;20069;-54
2022/04/25 11:58:54;;;;;;;1.60;1.50;;;;;;;16.68;56.68;95310.53;5087805;28;20030;-54
2022/04/25 12:01:36;;;;;;;2.33;1.63;;;;;;;16.41;56.90;95314.72;5088542;28;20067;-55
2022/04/25 12:04:23;;;;;;;2.30;1.67;;;;;;;15.89;59.81;95315.56;5091123;28;20514;-55
2022/04/25 12:06:55;;;;;;;3.60;1.90;;;;;;;16.21;59.13;95317.97;5092133;28;20027;-54
2022/04/25 12:17:42;;;;;;;1.67;1.65;;;;;;;14.67;63.72;95322.63;5087605;28;20095;-54
2022/04/25 12:20:13;;;;;;;1.75;1.70;;;;;;;14.58;63.57;95315.72;5088678;28;20020;-53